sensor_id;sensor_type;location;lat;lon;timestamp;P1;durP1;ratioP1;P2;durP2;ratioP2
6394;SDS011;3230;42.588;23.358;2022-12-16T00:00:35;36.17;;;17.97;;
6394;SDS011;3230;42.588;23.358;2022-12-16T00:03:00;33.07;;;16.10;;
6394;SDS011;3230;42.588;23.358;2022-12-16T00:05:26;39.70;;;19.83;;
6394;SDS011;3230;42.588;23.358;2022-12-16T00:07:52;39.65;;;19.33;;
6394;SDS011;3230;42.588;23.358;2022-12-16T00:10:19;110.80;;;46.40;;
6394;SDS011;3230;42.588;23.358;2022-12-16T00:12:45;47.72;;;25.58;;
6394;SDS011;3230;42.588;23.358;2022-12-16T00:15:11;64.90;;;35.37;;
6394;SDS011;3230;42.588;23.358;2022-12-16T00:17:36;49.73;;;28.43;;
6394;SDS011;3230;42.588;23.358;2022-12-16T00:20:03;46.35;;;23.00;;
6394;SDS011;3230;42.588;23.358;2022-12-16T00:22:29;29.17;;;15.40;;
6394;SDS011;3230;42.588;23.358;2022-12-16T00:24:55;24.53;;;13.50;;
6394;SDS011;3230;42.588;23.358;2022-12-16T00:27:20;38.10;;;22.80;;
6394;SDS011;3230;42.588;23.358;2022-12-16T00:29:46;28.43;;;13.47;;
6394;SDS011;3230;42.588;23.358;2022-12-16T00:32:11;11.60;;;7.30;;
6394;SDS011;3230;42.588;23.358;2022-12-16T00:34:36;12.10;;;7.93;;
6394;SDS011;3230;42.588;23.358;2022-12-16T00:37:02;22.10;;;13.87;;
6394;SDS011;3230;42.588;23.358;2022-12-16T00:39:27;14.60;;;8.10;;
6394;SDS011;3230;42.588;23.358;2022-12-16T00:41:53;20.17;;;11.80;;
6394;SDS011;3230;42.588;23.358;2022-12-16T00:44:18;18.77;;;11.47;;
6394;SDS011;3230;42.588;23.358;2022-12-16T00:46:43;9.43;;;5.73;;
6394;SDS011;3230;42.588;23.358;2022-12-16T00:49:09;14.90;;;10.00;;
6394;SDS011;3230;42.588;23.358;2022-12-16T00:51:34;12.93;;;9.07;;
6394;SDS011;3230;42.588;23.358;2022-12-16T00:54:00;20.47;;;12.07;;
6394;SDS011;3230;42.588;23.358;2022-12-16T00:56:25;22.93;;;14.60;;
6394;SDS011;3230;42.588;23.358;2022-12-16T00:58:51;15.57;;;9.80;;
6394;SDS011;3230;42.588;23.358;2022-12-16T01:01:16;53.57;;;29.17;;
6394;SDS011;3230;42.588;23.358;2022-12-16T01:03:42;13.10;;;7.20;;
6394;SDS011;3230;42.588;23.358;2022-12-16T01:06:08;14.60;;;9.77;;
6394;SDS011;3230;42.588;23.358;2022-12-16T01:08:39;12.40;;;6.50;;
6394;SDS011;3230;42.588;23.358;2022-12-16T01:11:04;35.20;;;18.80;;
6394;SDS011;3230;42.588;23.358;2022-12-16T01:13:30;24.90;;;12.77;;
6394;SDS011;3230;42.588;23.358;2022-12-16T01:15:59;14.50;;;9.33;;
6394;SDS011;3230;42.588;23.358;2022-12-16T01:18:25;35.50;;;17.77;;
6394;SDS011;3230;42.588;23.358;2022-12-16T01:20:51;24.40;;;11.73;;
6394;SDS011;3230;42.588;23.358;2022-12-16T01:23:16;29.03;;;16.73;;
6394;SDS011;3230;42.588;23.358;2022-12-16T01:25:42;23.80;;;12.60;;
6394;SDS011;3230;42.588;23.358;2022-12-16T01:28:07;9.87;;;6.27;;
6394;SDS011;3230;42.588;23.358;2022-12-16T01:30:33;22.17;;;12.07;;
6394;SDS011;3230;42.588;23.358;2022-12-16T01:32:58;9.40;;;6.13;;
6394;SDS011;3230;42.588;23.358;2022-12-16T01:35:24;8.50;;;6.20;;
6394;SDS011;3230;42.588;23.358;2022-12-16T01:37:49;63.67;;;29.00;;
6394;SDS011;3230;42.588;23.358;2022-12-16T01:40:15;15.90;;;8.60;;
6394;SDS011;3230;42.588;23.358;2022-12-16T01:42:43;13.50;;;7.47;;
6394;SDS011;3230;42.588;23.358;2022-12-16T01:48:12;13.43;;;6.28;;
6394;SDS011;3230;42.588;23.358;2022-12-16T01:50:42;15.38;;;8.35;;
6394;SDS011;3230;42.588;23.358;2022-12-16T01:53:08;23.37;;;11.90;;
6394;SDS011;3230;42.588;23.358;2022-12-16T01:55:35;16.20;;;9.27;;
6394;SDS011;3230;42.588;23.358;2022-12-16T01:58:12;18.27;;;9.98;;
6394;SDS011;3230;42.588;23.358;2022-12-16T02:00:43;19.08;;;10.55;;
6394;SDS011;3230;42.588;23.358;2022-12-16T02:03:08;21.83;;;10.57;;
6394;SDS011;3230;42.588;23.358;2022-12-16T02:05:37;16.50;;;9.25;;
6394;SDS011;3230;42.588;23.358;2022-12-16T02:21:25;27.85;;;14.60;;
6394;SDS011;3230;42.588;23.358;2022-12-16T02:29:23;18.60;;;11.00;;
6394;SDS011;3230;42.588;23.358;2022-12-16T02:41:03;38.30;;;18.93;;
6394;SDS011;3230;42.588;23.358;2022-12-16T02:46:15;15.35;;;7.85;;
6394;SDS011;3230;42.588;23.358;2022-12-16T02:48:43;10.32;;;6.95;;
6394;SDS011;3230;42.588;23.358;2022-12-16T02:51:08;9.77;;;6.43;;
6394;SDS011;3230;42.588;23.358;2022-12-16T02:53:35;9.13;;;6.10;;
6394;SDS011;3230;42.588;23.358;2022-12-16T03:04:08;9.50;;;5.50;;
6394;SDS011;3230;42.588;23.358;2022-12-16T03:06:36;8.80;;;5.70;;
6394;SDS011;3230;42.588;23.358;2022-12-16T03:09:06;12.15;;;7.10;;
6394;SDS011;3230;42.588;23.358;2022-12-16T03:11:34;11.80;;;7.73;;
6394;SDS011;3230;42.588;23.358;2022-12-16T03:14:02;12.20;;;6.73;;
6394;SDS011;3230;42.588;23.358;2022-12-16T03:16:30;10.45;;;6.85;;
6394;SDS011;3230;42.588;23.358;2022-12-16T03:18:59;11.65;;;7.63;;
6394;SDS011;3230;42.588;23.358;2022-12-16T03:21:28;24.85;;;13.20;;
6394;SDS011;3230;42.588;23.358;2022-12-16T03:24:02;20.33;;;11.70;;
6394;SDS011;3230;42.588;23.358;2022-12-16T03:29:27;14.00;;;8.40;;
6394;SDS011;3230;42.588;23.358;2022-12-16T03:35:13;40.30;;;15.70;;
6394;SDS011;3230;42.588;23.358;2022-12-16T03:38:02;17.20;;;10.07;;
6394;SDS011;3230;42.588;23.358;2022-12-16T03:40:29;119.50;;;43.67;;
6394;SDS011;3230;42.588;23.358;2022-12-16T03:42:57;130.27;;;49.83;;
6394;SDS011;3230;42.588;23.358;2022-12-16T03:45:24;35.45;;;17.52;;
6394;SDS011;3230;42.588;23.358;2022-12-16T03:47:55;15.20;;;8.27;;
6394;SDS011;3230;42.588;23.358;2022-12-16T03:50:24;13.43;;;8.00;;
6394;SDS011;3230;42.588;23.358;2022-12-16T03:52:59;57.20;;;27.73;;
6394;SDS011;3230;42.588;23.358;2022-12-16T03:55:25;30.95;;;16.80;;
6394;SDS011;3230;42.588;23.358;2022-12-16T03:57:51;11.18;;;6.80;;
6394;SDS011;3230;42.588;23.358;2022-12-16T04:00:17;19.37;;;11.80;;
6394;SDS011;3230;42.588;23.358;2022-12-16T04:02:43;10.05;;;5.97;;
6394;SDS011;3230;42.588;23.358;2022-12-16T04:05:09;9.53;;;5.77;;
6394;SDS011;3230;42.588;23.358;2022-12-16T04:07:34;12.27;;;7.50;;
6394;SDS011;3230;42.588;23.358;2022-12-16T04:10:00;26.67;;;15.60;;
6394;SDS011;3230;42.588;23.358;2022-12-16T04:12:25;20.63;;;12.53;;
6394;SDS011;3230;42.588;23.358;2022-12-16T04:15:09;14.53;;;8.90;;
6394;SDS011;3230;42.588;23.358;2022-12-16T04:17:54;13.77;;;7.83;;
6394;SDS011;3230;42.588;23.358;2022-12-16T04:20:50;10.98;;;6.07;;
6394;SDS011;3230;42.588;23.358;2022-12-16T04:23:39;13.88;;;8.35;;
6394;SDS011;3230;42.588;23.358;2022-12-16T04:26:35;24.55;;;13.48;;
6394;SDS011;3230;42.588;23.358;2022-12-16T04:29:20;18.42;;;9.77;;
6394;SDS011;3230;42.588;23.358;2022-12-16T04:31:46;71.37;;;35.53;;
6394;SDS011;3230;42.588;23.358;2022-12-16T04:34:11;38.63;;;20.43;;
6394;SDS011;3230;42.588;23.358;2022-12-16T04:36:56;30.10;;;19.15;;
6394;SDS011;3230;42.588;23.358;2022-12-16T04:39:42;33.45;;;19.63;;
6394;SDS011;3230;42.588;23.358;2022-12-16T04:42:26;26.33;;;16.55;;
6394;SDS011;3230;42.588;23.358;2022-12-16T04:45:10;27.25;;;14.38;;
6394;SDS011;3230;42.588;23.358;2022-12-16T04:47:54;22.30;;;13.30;;
6394;SDS011;3230;42.588;23.358;2022-12-16T04:50:38;25.58;;;13.50;;
6394;SDS011;3230;42.588;23.358;2022-12-16T04:53:22;39.97;;;21.40;;
6394;SDS011;3230;42.588;23.358;2022-12-16T04:56:07;19.67;;;11.82;;
6394;SDS011;3230;42.588;23.358;2022-12-16T04:58:51;14.05;;;7.97;;
6394;SDS011;3230;42.588;23.358;2022-12-16T05:01:40;13.18;;;8.13;;
6394;SDS011;3230;42.588;23.358;2022-12-16T05:04:24;16.92;;;9.70;;
6394;SDS011;3230;42.588;23.358;2022-12-16T05:07:08;17.90;;;10.18;;
6394;SDS011;3230;42.588;23.358;2022-12-16T05:09:52;9.63;;;6.13;;
6394;SDS011;3230;42.588;23.358;2022-12-16T05:12:36;12.27;;;7.15;;
6394;SDS011;3230;42.588;23.358;2022-12-16T05:15:20;20.58;;;11.75;;
6394;SDS011;3230;42.588;23.358;2022-12-16T05:18:11;15.75;;;8.43;;
6394;SDS011;3230;42.588;23.358;2022-12-16T05:20:57;14.60;;;8.07;;
6394;SDS011;3230;42.588;23.358;2022-12-16T05:23:41;16.25;;;6.25;;
6394;SDS011;3230;42.588;23.358;2022-12-16T05:26:25;19.17;;;10.23;;
6394;SDS011;3230;42.588;23.358;2022-12-16T05:29:09;39.60;;;19.15;;
6394;SDS011;3230;42.588;23.358;2022-12-16T05:31:53;30.27;;;13.18;;
6394;SDS011;3230;42.588;23.358;2022-12-16T05:34:37;13.95;;;8.90;;
6394;SDS011;3230;42.588;23.358;2022-12-16T05:37:21;12.88;;;7.22;;
6394;SDS011;3230;42.588;23.358;2022-12-16T05:40:05;10.38;;;5.90;;
6394;SDS011;3230;42.588;23.358;2022-12-16T05:42:50;23.20;;;9.93;;
6394;SDS011;3230;42.588;23.358;2022-12-16T05:45:34;13.57;;;7.85;;
6394;SDS011;3230;42.588;23.358;2022-12-16T05:48:18;12.82;;;7.43;;
6394;SDS011;3230;42.588;23.358;2022-12-16T05:51:01;14.70;;;8.85;;
6394;SDS011;3230;42.588;23.358;2022-12-16T05:53:45;11.45;;;6.55;;
6394;SDS011;3230;42.588;23.358;2022-12-16T05:56:31;11.27;;;5.75;;
6394;SDS011;3230;42.588;23.358;2022-12-16T05:59:15;18.90;;;10.20;;
6394;SDS011;3230;42.588;23.358;2022-12-16T06:01:59;19.52;;;10.43;;
6394;SDS011;3230;42.588;23.358;2022-12-16T06:04:43;20.50;;;11.20;;
6394;SDS011;3230;42.588;23.358;2022-12-16T06:07:27;18.83;;;10.20;;
6394;SDS011;3230;42.588;23.358;2022-12-16T06:10:11;18.52;;;10.90;;
6394;SDS011;3230;42.588;23.358;2022-12-16T06:12:55;19.67;;;11.23;;
6394;SDS011;3230;42.588;23.358;2022-12-16T06:15:39;16.02;;;9.98;;
6394;SDS011;3230;42.588;23.358;2022-12-16T06:18:22;18.60;;;9.43;;
6394;SDS011;3230;42.588;23.358;2022-12-16T06:21:06;15.90;;;9.50;;
6394;SDS011;3230;42.588;23.358;2022-12-16T06:23:50;13.82;;;7.82;;
6394;SDS011;3230;42.588;23.358;2022-12-16T06:26:34;17.75;;;9.93;;
6394;SDS011;3230;42.588;23.358;2022-12-16T06:29:18;15.68;;;9.13;;
6394;SDS011;3230;42.588;23.358;2022-12-16T06:32:02;11.77;;;6.70;;
6394;SDS011;3230;42.588;23.358;2022-12-16T06:34:46;9.57;;;6.10;;
6394;SDS011;3230;42.588;23.358;2022-12-16T06:37:30;13.73;;;7.30;;
6394;SDS011;3230;42.588;23.358;2022-12-16T06:40:14;10.48;;;6.60;;
6394;SDS011;3230;42.588;23.358;2022-12-16T06:42:58;27.43;;;13.30;;
6394;SDS011;3230;42.588;23.358;2022-12-16T06:45:41;13.37;;;6.40;;
6394;SDS011;3230;42.588;23.358;2022-12-16T06:48:26;12.37;;;7.50;;
6394;SDS011;3230;42.588;23.358;2022-12-16T06:51:09;10.67;;;6.50;;
6394;SDS011;3230;42.588;23.358;2022-12-16T06:53:53;14.00;;;8.13;;
6394;SDS011;3230;42.588;23.358;2022-12-16T06:56:37;15.00;;;8.20;;
6394;SDS011;3230;42.588;23.358;2022-12-16T06:59:21;13.23;;;7.00;;
6394;SDS011;3230;42.588;23.358;2022-12-16T07:02:07;14.20;;;7.67;;
6394;SDS011;3230;42.588;23.358;2022-12-16T07:04:53;12.63;;;7.00;;
6394;SDS011;3230;42.588;23.358;2022-12-16T07:07:37;8.20;;;5.20;;
6394;SDS011;3230;42.588;23.358;2022-12-16T07:10:21;12.83;;;6.67;;
6394;SDS011;3230;42.588;23.358;2022-12-16T07:13:05;8.80;;;5.47;;
6394;SDS011;3230;42.588;23.358;2022-12-16T07:15:49;9.83;;;3.97;;
6394;SDS011;3230;42.588;23.358;2022-12-16T07:18:52;10.27;;;5.20;;
6394;SDS011;3230;42.588;23.358;2022-12-16T07:21:37;4.13;;;3.00;;
6394;SDS011;3230;42.588;23.358;2022-12-16T07:24:21;7.80;;;4.60;;
6394;SDS011;3230;42.588;23.358;2022-12-16T07:27:04;12.97;;;5.00;;
6394;SDS011;3230;42.588;23.358;2022-12-16T07:29:48;8.40;;;4.80;;
6394;SDS011;3230;42.588;23.358;2022-12-16T07:32:32;9.90;;;5.80;;
6394;SDS011;3230;42.588;23.358;2022-12-16T07:35:16;10.43;;;6.30;;
6394;SDS011;3230;42.588;23.358;2022-12-16T07:38:00;6.47;;;4.20;;
6394;SDS011;3230;42.588;23.358;2022-12-16T07:40:44;4.43;;;3.80;;
6394;SDS011;3230;42.588;23.358;2022-12-16T07:43:28;6.67;;;4.67;;
6394;SDS011;3230;42.588;23.358;2022-12-16T07:46:12;9.50;;;6.30;;
6394;SDS011;3230;42.588;23.358;2022-12-16T07:48:56;7.00;;;4.07;;
6394;SDS011;3230;42.588;23.358;2022-12-16T07:51:40;7.40;;;4.80;;
6394;SDS011;3230;42.588;23.358;2022-12-16T07:54:24;8.97;;;5.60;;
6394;SDS011;3230;42.588;23.358;2022-12-16T07:57:08;8.40;;;5.33;;
6394;SDS011;3230;42.588;23.358;2022-12-16T07:59:52;9.67;;;5.53;;
6394;SDS011;3230;42.588;23.358;2022-12-16T08:02:36;7.30;;;4.70;;
6394;SDS011;3230;42.588;23.358;2022-12-16T08:05:20;4.10;;;3.23;;
6394;SDS011;3230;42.588;23.358;2022-12-16T08:08:04;3.77;;;3.23;;
6394;SDS011;3230;42.588;23.358;2022-12-16T08:10:47;6.30;;;3.63;;
6394;SDS011;3230;42.588;23.358;2022-12-16T08:13:31;5.10;;;3.80;;
6394;SDS011;3230;42.588;23.358;2022-12-16T08:16:15;5.60;;;3.20;;
6394;SDS011;3230;42.588;23.358;2022-12-16T08:18:59;6.47;;;3.80;;
6394;SDS011;3230;42.588;23.358;2022-12-16T08:21:43;5.47;;;3.77;;
6394;SDS011;3230;42.588;23.358;2022-12-16T08:24:27;5.47;;;3.60;;
6394;SDS011;3230;42.588;23.358;2022-12-16T08:27:11;4.87;;;3.40;;
6394;SDS011;3230;42.588;23.358;2022-12-16T08:29:55;8.33;;;5.63;;
6394;SDS011;3230;42.588;23.358;2022-12-16T08:32:39;6.87;;;4.60;;
6394;SDS011;3230;42.588;23.358;2022-12-16T08:35:23;5.97;;;3.50;;
6394;SDS011;3230;42.588;23.358;2022-12-16T08:38:07;7.30;;;4.07;;
6394;SDS011;3230;42.588;23.358;2022-12-16T08:40:53;3.07;;;2.30;;
6394;SDS011;3230;42.588;23.358;2022-12-16T08:43:37;4.43;;;2.40;;
6394;SDS011;3230;42.588;23.358;2022-12-16T08:46:21;4.83;;;3.47;;
6394;SDS011;3230;42.588;23.358;2022-12-16T08:49:05;5.43;;;3.63;;
6394;SDS011;3230;42.588;23.358;2022-12-16T08:51:49;4.27;;;3.30;;
6394;SDS011;3230;42.588;23.358;2022-12-16T08:54:34;5.20;;;3.73;;
6394;SDS011;3230;42.588;23.358;2022-12-16T08:57:18;5.10;;;3.70;;
6394;SDS011;3230;42.588;23.358;2022-12-16T09:00:03;5.00;;;3.30;;
6394;SDS011;3230;42.588;23.358;2022-12-16T09:02:51;7.83;;;4.30;;
6394;SDS011;3230;42.588;23.358;2022-12-16T09:05:37;5.80;;;3.60;;
6394;SDS011;3230;42.588;23.358;2022-12-16T09:08:21;9.33;;;4.20;;
6394;SDS011;3230;42.588;23.358;2022-12-16T09:11:05;7.10;;;4.17;;
6394;SDS011;3230;42.588;23.358;2022-12-16T09:13:49;6.73;;;4.47;;
6394;SDS011;3230;42.588;23.358;2022-12-16T09:16:33;5.93;;;4.47;;
6394;SDS011;3230;42.588;23.358;2022-12-16T09:19:17;6.70;;;4.17;;
6394;SDS011;3230;42.588;23.358;2022-12-16T09:22:01;7.10;;;5.20;;
6394;SDS011;3230;42.588;23.358;2022-12-16T09:24:45;8.40;;;4.20;;
6394;SDS011;3230;42.588;23.358;2022-12-16T09:27:29;6.83;;;4.37;;
6394;SDS011;3230;42.588;23.358;2022-12-16T09:30:13;6.67;;;4.20;;
6394;SDS011;3230;42.588;23.358;2022-12-16T09:32:56;5.20;;;2.90;;
6394;SDS011;3230;42.588;23.358;2022-12-16T09:35:40;4.20;;;2.60;;
6394;SDS011;3230;42.588;23.358;2022-12-16T09:38:24;5.17;;;3.30;;
6394;SDS011;3230;42.588;23.358;2022-12-16T09:41:33;3.83;;;2.60;;
6394;SDS011;3230;42.588;23.358;2022-12-16T09:50:34;5.13;;;2.60;;
6394;SDS011;3230;42.588;23.358;2022-12-16T09:53:22;8.70;;;3.20;;
6394;SDS011;3230;42.588;23.358;2022-12-16T09:56:16;6.83;;;2.50;;
6394;SDS011;3230;42.588;23.358;2022-12-16T09:59:04;5.40;;;4.00;;
6394;SDS011;3230;42.588;23.358;2022-12-16T10:01:54;9.43;;;5.33;;
6394;SDS011;3230;42.588;23.358;2022-12-16T10:04:38;4.00;;;1.73;;
6394;SDS011;3230;42.588;23.358;2022-12-16T10:07:22;1.30;;;1.10;;
6394;SDS011;3230;42.588;23.358;2022-12-16T10:13:43;4.07;;;1.27;;
6394;SDS011;3230;42.588;23.358;2022-12-16T10:16:46;3.63;;;1.40;;
6394;SDS011;3230;42.588;23.358;2022-12-16T10:25:48;1.30;;;1.10;;
6394;SDS011;3230;42.588;23.358;2022-12-16T10:28:48;2.90;;;1.47;;
6394;SDS011;3230;42.588;23.358;2022-12-16T10:31:38;5.43;;;3.03;;
6394;SDS011;3230;42.588;23.358;2022-12-16T10:34:24;12.60;;;7.30;;
6394;SDS011;3230;42.588;23.358;2022-12-16T10:37:23;13.70;;;8.70;;
6394;SDS011;3230;42.588;23.358;2022-12-16T10:40:12;5.70;;;4.00;;
6394;SDS011;3230;42.588;23.358;2022-12-16T10:43:01;3.90;;;1.77;;
6394;SDS011;3230;42.588;23.358;2022-12-16T10:45:50;1.83;;;1.03;;
6394;SDS011;3230;42.588;23.358;2022-12-16T10:48:36;6.53;;;1.53;;
6394;SDS011;3230;42.588;23.358;2022-12-16T10:51:22;2.43;;;1.60;;
6394;SDS011;3230;42.588;23.358;2022-12-16T10:57:19;5.43;;;1.40;;
6394;SDS011;3230;42.588;23.358;2022-12-16T11:03:24;1.53;;;1.27;;
6394;SDS011;3230;42.588;23.358;2022-12-16T11:06:12;6.00;;;1.40;;
6394;SDS011;3230;42.588;23.358;2022-12-16T11:09:14;3.07;;;1.23;;
6394;SDS011;3230;42.588;23.358;2022-12-16T11:12:23;2.40;;;1.43;;
6394;SDS011;3230;42.588;23.358;2022-12-16T11:18:22;3.80;;;1.30;;
6394;SDS011;3230;42.588;23.358;2022-12-16T11:21:26;3.00;;;1.30;;
6394;SDS011;3230;42.588;23.358;2022-12-16T11:24:16;3.87;;;1.30;;
6394;SDS011;3230;42.588;23.358;2022-12-16T11:27:05;1.33;;;1.23;;
6394;SDS011;3230;42.588;23.358;2022-12-16T11:29:57;3.17;;;1.13;;
6394;SDS011;3230;42.588;23.358;2022-12-16T11:32:51;3.97;;;1.47;;
6394;SDS011;3230;42.588;23.358;2022-12-16T11:35:41;1.93;;;1.20;;
6394;SDS011;3230;42.588;23.358;2022-12-16T11:38:46;2.10;;;1.40;;
6394;SDS011;3230;42.588;23.358;2022-12-16T11:41:40;1.70;;;1.30;;
6394;SDS011;3230;42.588;23.358;2022-12-16T11:47:34;4.53;;;1.90;;
6394;SDS011;3230;42.588;23.358;2022-12-16T11:50:19;3.03;;;1.17;;
6394;SDS011;3230;42.588;23.358;2022-12-16T11:53:12;3.97;;;1.40;;
6394;SDS011;3230;42.588;23.358;2022-12-16T11:56:02;3.83;;;1.40;;
6394;SDS011;3230;42.588;23.358;2022-12-16T11:58:49;5.70;;;1.50;;
6394;SDS011;3230;42.588;23.358;2022-12-16T12:01:45;2.50;;;1.20;;
6394;SDS011;3230;42.588;23.358;2022-12-16T12:04:37;3.43;;;1.57;;
6394;SDS011;3230;42.588;23.358;2022-12-16T12:16:45;2.50;;;1.50;;
6394;SDS011;3230;42.588;23.358;2022-12-16T12:19:57;4.93;;;1.83;;
6394;SDS011;3230;42.588;23.358;2022-12-16T12:22:44;3.63;;;1.37;;
6394;SDS011;3230;42.588;23.358;2022-12-16T12:35:36;1.30;;;1.20;;
6394;SDS011;3230;42.588;23.358;2022-12-16T12:41:40;2.20;;;1.20;;
6394;SDS011;3230;42.588;23.358;2022-12-16T12:48:32;5.80;;;1.20;;
6394;SDS011;3230;42.588;23.358;2022-12-16T12:57:11;3.03;;;1.90;;
6394;SDS011;3230;42.588;23.358;2022-12-16T13:00:02;2.50;;;1.80;;
6394;SDS011;3230;42.588;23.358;2022-12-16T13:05:52;4.10;;;2.40;;
6394;SDS011;3230;42.588;23.358;2022-12-16T13:11:20;5.20;;;2.13;;
6394;SDS011;3230;42.588;23.358;2022-12-16T13:17:15;2.90;;;1.67;;
6394;SDS011;3230;42.588;23.358;2022-12-16T13:20:00;3.33;;;2.17;;
6394;SDS011;3230;42.588;23.358;2022-12-16T13:22:46;3.60;;;1.93;;
6394;SDS011;3230;42.588;23.358;2022-12-16T13:25:38;3.03;;;1.60;;
6394;SDS011;3230;42.588;23.358;2022-12-16T13:28:28;2.10;;;1.50;;
6394;SDS011;3230;42.588;23.358;2022-12-16T13:31:15;5.40;;;1.40;;
6394;SDS011;3230;42.588;23.358;2022-12-16T13:37:04;1.63;;;1.40;;
6394;SDS011;3230;42.588;23.358;2022-12-16T13:40:04;4.17;;;1.70;;
6394;SDS011;3230;42.588;23.358;2022-12-16T13:42:55;3.67;;;2.10;;
6394;SDS011;3230;42.588;23.358;2022-12-16T13:45:43;3.30;;;2.00;;
6394;SDS011;3230;42.588;23.358;2022-12-16T13:48:49;4.83;;;2.10;;
6394;SDS011;3230;42.588;23.358;2022-12-16T13:54:26;2.13;;;1.60;;
6394;SDS011;3230;42.588;23.358;2022-12-16T13:57:14;5.70;;;2.23;;
6394;SDS011;3230;42.588;23.358;2022-12-16T14:00:03;1.97;;;1.40;;
6394;SDS011;3230;42.588;23.358;2022-12-16T14:02:49;2.50;;;1.30;;
6394;SDS011;3230;42.588;23.358;2022-12-16T14:05:36;1.60;;;1.30;;
6394;SDS011;3230;42.588;23.358;2022-12-16T14:08:24;4.70;;;1.47;;
6394;SDS011;3230;42.588;23.358;2022-12-16T14:11:17;9.33;;;3.60;;
6394;SDS011;3230;42.588;23.358;2022-12-16T14:17:03;3.43;;;1.60;;
6394;SDS011;3230;42.588;23.358;2022-12-16T14:26:13;3.90;;;2.20;;
6394;SDS011;3230;42.588;23.358;2022-12-16T14:28:59;4.80;;;2.67;;
6394;SDS011;3230;42.588;23.358;2022-12-16T14:31:44;5.27;;;2.30;;
6394;SDS011;3230;42.588;23.358;2022-12-16T14:34:29;4.23;;;2.50;;
6394;SDS011;3230;42.588;23.358;2022-12-16T14:37:19;4.73;;;2.47;;
6394;SDS011;3230;42.588;23.358;2022-12-16T14:40:19;2.90;;;2.00;;
6394;SDS011;3230;42.588;23.358;2022-12-16T14:43:15;3.67;;;2.53;;
6394;SDS011;3230;42.588;23.358;2022-12-16T14:46:02;6.47;;;3.00;;
6394;SDS011;3230;42.588;23.358;2022-12-16T14:48:47;8.30;;;3.90;;
6394;SDS011;3230;42.588;23.358;2022-12-16T14:51:34;6.03;;;3.67;;
6394;SDS011;3230;42.588;23.358;2022-12-16T14:57:32;5.60;;;3.10;;
6394;SDS011;3230;42.588;23.358;2022-12-16T15:06:13;2.60;;;2.37;;
6394;SDS011;3230;42.588;23.358;2022-12-16T15:09:01;8.43;;;2.73;;
6394;SDS011;3230;42.588;23.358;2022-12-16T15:11:46;7.30;;;3.00;;
6394;SDS011;3230;42.588;23.358;2022-12-16T15:14:34;15.63;;;4.97;;
6394;SDS011;3230;42.588;23.358;2022-12-16T15:17:26;6.70;;;2.93;;
6394;SDS011;3230;42.588;23.358;2022-12-16T15:20:20;4.87;;;2.80;;
6394;SDS011;3230;42.588;23.358;2022-12-16T15:26:25;20.27;;;10.37;;
6394;SDS011;3230;42.588;23.358;2022-12-16T15:35:30;9.70;;;5.30;;
6394;SDS011;3230;42.588;23.358;2022-12-16T15:38:29;9.10;;;3.93;;
6394;SDS011;3230;42.588;23.358;2022-12-16T15:41:20;8.23;;;3.97;;
6394;SDS011;3230;42.588;23.358;2022-12-16T15:44:23;8.67;;;4.33;;
6394;SDS011;3230;42.588;23.358;2022-12-16T15:47:18;4.00;;;2.47;;
6394;SDS011;3230;42.588;23.358;2022-12-16T15:50:10;7.27;;;3.30;;
6394;SDS011;3230;42.588;23.358;2022-12-16T15:53:12;7.13;;;3.30;;
6394;SDS011;3230;42.588;23.358;2022-12-16T15:55:59;5.30;;;3.03;;
6394;SDS011;3230;42.588;23.358;2022-12-16T15:58:43;7.93;;;3.00;;
6394;SDS011;3230;42.588;23.358;2022-12-16T16:01:28;7.20;;;3.13;;
6394;SDS011;3230;42.588;23.358;2022-12-16T16:04:24;9.13;;;4.93;;
6394;SDS011;3230;42.588;23.358;2022-12-16T16:07:15;20.70;;;11.13;;
6394;SDS011;3230;42.588;23.358;2022-12-16T16:10:34;7.17;;;3.53;;
6394;SDS011;3230;42.588;23.358;2022-12-16T16:13:11;11.40;;;4.10;;
6394;SDS011;3230;42.588;23.358;2022-12-16T16:15:55;9.17;;;4.47;;
6394;SDS011;3230;42.588;23.358;2022-12-16T16:18:40;8.90;;;3.33;;
6394;SDS011;3230;42.588;23.358;2022-12-16T16:21:25;9.53;;;3.07;;
6394;SDS011;3230;42.588;23.358;2022-12-16T16:24:10;6.67;;;2.67;;
6394;SDS011;3230;42.588;23.358;2022-12-16T16:26:54;5.93;;;3.40;;
6394;SDS011;3230;42.588;23.358;2022-12-16T16:29:41;10.60;;;3.57;;
6394;SDS011;3230;42.588;23.358;2022-12-16T16:32:25;7.33;;;4.47;;
6394;SDS011;3230;42.588;23.358;2022-12-16T16:35:09;7.93;;;3.50;;
6394;SDS011;3230;42.588;23.358;2022-12-16T16:37:53;9.60;;;4.83;;
6394;SDS011;3230;42.588;23.358;2022-12-16T16:40:38;10.63;;;5.30;;
6394;SDS011;3230;42.588;23.358;2022-12-16T16:43:26;11.27;;;5.43;;
6394;SDS011;3230;42.588;23.358;2022-12-16T16:49:04;4.90;;;2.80;;
6394;SDS011;3230;42.588;23.358;2022-12-16T16:51:51;5.47;;;3.40;;
6394;SDS011;3230;42.588;23.358;2022-12-16T16:54:35;9.03;;;4.90;;
6394;SDS011;3230;42.588;23.358;2022-12-16T16:57:19;6.07;;;3.50;;
6394;SDS011;3230;42.588;23.358;2022-12-16T17:00:03;6.20;;;3.30;;
6394;SDS011;3230;42.588;23.358;2022-12-16T17:02:48;9.07;;;3.10;;
6394;SDS011;3230;42.588;23.358;2022-12-16T17:05:32;5.50;;;2.83;;
6394;SDS011;3230;42.588;23.358;2022-12-16T17:08:16;6.83;;;3.30;;
6394;SDS011;3230;42.588;23.358;2022-12-16T17:11:00;7.00;;;3.50;;
6394;SDS011;3230;42.588;23.358;2022-12-16T17:13:44;13.13;;;4.90;;
6394;SDS011;3230;42.588;23.358;2022-12-16T17:16:28;11.37;;;6.20;;
6394;SDS011;3230;42.588;23.358;2022-12-16T17:19:12;13.00;;;7.70;;
6394;SDS011;3230;42.588;23.358;2022-12-16T17:21:56;12.40;;;6.90;;
6394;SDS011;3230;42.588;23.358;2022-12-16T17:24:40;23.07;;;9.10;;
6394;SDS011;3230;42.588;23.358;2022-12-16T17:27:24;10.20;;;5.47;;
6394;SDS011;3230;42.588;23.358;2022-12-16T17:30:19;8.87;;;5.40;;
6394;SDS011;3230;42.588;23.358;2022-12-16T17:33:06;11.90;;;5.50;;
6394;SDS011;3230;42.588;23.358;2022-12-16T17:35:50;5.23;;;2.70;;
6394;SDS011;3230;42.588;23.358;2022-12-16T17:38:38;6.00;;;3.53;;
6394;SDS011;3230;42.588;23.358;2022-12-16T17:41:25;6.27;;;3.40;;
6394;SDS011;3230;42.588;23.358;2022-12-16T17:44:10;8.50;;;4.40;;
6394;SDS011;3230;42.588;23.358;2022-12-16T17:46:54;5.70;;;4.10;;
6394;SDS011;3230;42.588;23.358;2022-12-16T17:49:38;5.93;;;2.90;;
6394;SDS011;3230;42.588;23.358;2022-12-16T17:52:22;4.50;;;2.70;;
6394;SDS011;3230;42.588;23.358;2022-12-16T17:55:06;6.83;;;4.13;;
6394;SDS011;3230;42.588;23.358;2022-12-16T17:57:51;7.70;;;3.60;;
6394;SDS011;3230;42.588;23.358;2022-12-16T18:00:35;5.97;;;3.20;;
6394;SDS011;3230;42.588;23.358;2022-12-16T18:03:21;5.67;;;3.43;;
6394;SDS011;3230;42.588;23.358;2022-12-16T18:06:05;8.50;;;4.57;;
6394;SDS011;3230;42.588;23.358;2022-12-16T18:08:49;11.67;;;4.10;;
6394;SDS011;3230;42.588;23.358;2022-12-16T18:11:33;5.17;;;3.10;;
6394;SDS011;3230;42.588;23.358;2022-12-16T18:14:17;11.27;;;5.53;;
6394;SDS011;3230;42.588;23.358;2022-12-16T18:17:01;11.03;;;5.63;;
6394;SDS011;3230;42.588;23.358;2022-12-16T18:19:45;11.70;;;5.90;;
6394;SDS011;3230;42.588;23.358;2022-12-16T18:22:29;11.23;;;5.20;;
6394;SDS011;3230;42.588;23.358;2022-12-16T18:25:13;21.73;;;10.60;;
6394;SDS011;3230;42.588;23.358;2022-12-16T18:27:57;13.77;;;7.30;;
6394;SDS011;3230;42.588;23.358;2022-12-16T18:30:41;9.10;;;4.60;;
6394;SDS011;3230;42.588;23.358;2022-12-16T18:33:25;6.60;;;4.30;;
6394;SDS011;3230;42.588;23.358;2022-12-16T18:36:09;9.77;;;5.40;;
6394;SDS011;3230;42.588;23.358;2022-12-16T18:38:53;12.07;;;5.53;;
6394;SDS011;3230;42.588;23.358;2022-12-16T18:41:41;8.80;;;4.73;;
6394;SDS011;3230;42.588;23.358;2022-12-16T18:44:26;5.63;;;3.10;;
6394;SDS011;3230;42.588;23.358;2022-12-16T18:47:10;9.47;;;4.70;;
6394;SDS011;3230;42.588;23.358;2022-12-16T18:49:54;4.63;;;2.67;;
6394;SDS011;3230;42.588;23.358;2022-12-16T18:52:38;6.30;;;3.27;;
6394;SDS011;3230;42.588;23.358;2022-12-16T18:55:23;2.23;;;1.80;;
6394;SDS011;3230;42.588;23.358;2022-12-16T18:58:20;10.33;;;4.30;;